Time;durP1;ratioP1;P1;durP2;ratioP2;P2;SDS_P1;SDS_P2;PMS_P1;PMS_P2;Temp;Humidity;BMP_temperature;BMP_pressure;BME280_temperature;BME280_humidity;BME280_pressure;Samples;Min_cycle;Max_cycle;Signal;HPM_P1;HPM_P2
2023/11/18 00:00:24;;;;;;;2.33;0.80;;;6.20;90.20;;;;;;5014232;28;20295;-77
2023/11/18 00:02:51;;;;;;;2.30;0.90;;;6.20;90.20;;;;;;5013972;28;20196;-77
2023/11/18 00:05:18;;;;;;;3.35;1.45;;;6.10;90.10;;;;;;5014170;28;20287;-77
2023/11/18 00:07:45;;;;;;;2.40;1.02;;;6.10;90.20;;;;;;5013368;28;20289;-77
2023/11/18 00:10:12;;;;;;;2.10;0.80;;;6.10;90.20;;;;;;5013917;28;20712;-77
2023/11/18 00:12:41;;;;;;;1.90;0.80;;;6.00;90.10;;;;;;5013844;28;20275;-77
2023/11/18 00:15:11;;;;;;;1.92;0.65;;;6.00;90.00;;;;;;5013526;28;20196;-77
2023/11/18 00:17:38;;;;;;;1.75;0.73;;;5.90;90.20;;;;;;5013467;28;20287;-77
2023/11/18 00:20:09;;;;;;;2.80;1.40;;;5.80;90.30;;;;;;5013757;28;20287;-77
2023/11/18 00:22:39;;;;;;;3.38;1.20;;;5.70;90.50;;;;;;5013411;28;20184;-77
2023/11/18 00:25:07;;;;;;;2.60;1.40;;;5.70;90.70;;;;;;5016674;28;20185;-77
2023/11/18 00:27:37;;;;;;;3.47;1.60;;;5.70;91.00;;;;;;5017724;28;20200;-77
2023/11/18 00:30:08;;;;;;;2.50;0.93;;;5.70;91.00;;;;;;5017661;28;20635;-77
2023/11/18 00:32:35;;;;;;;2.90;1.77;;;5.60;91.00;;;;;;5017742;28;20184;-77
2023/11/18 00:35:04;;;;;;;2.72;0.95;;;5.60;91.10;;;;;;5017633;28;20557;-77
2023/11/18 00:37:31;;;;;;;2.20;1.00;;;5.50;91.30;;;;;;5017269;28;20709;-77
2023/11/18 00:40:03;;;;;;;3.28;1.33;;;5.50;91.50;;;;;;5017236;28;20238;-77
2023/11/18 00:42:30;;;;;;;3.63;1.48;;;5.60;91.60;;;;;;5017636;28;20188;-77
2023/11/18 00:44:57;;;;;;;2.60;1.50;;;5.60;91.70;;;;;;5017754;28;20219;-77
2023/11/18 00:47:25;;;;;;;3.17;1.40;;;5.50;91.70;;;;;;5017290;28;20597;-77
2023/11/18 00:49:53;;;;;;;2.30;1.45;;;5.50;91.80;;;;;;5016975;28;20251;-77
2023/11/18 00:52:20;;;;;;;3.30;1.80;;;5.50;91.90;;;;;;5016880;28;20197;-77
2023/11/18 00:54:49;;;;;;;2.65;1.27;;;5.50;92.00;;;;;;5016851;28;20231;-77
2023/11/18 00:57:18;;;;;;;2.70;1.42;;;5.60;92.20;;;;;;5017050;28;20246;-76
2023/11/18 00:59:45;;;;;;;4.45;1.73;;;5.60;92.20;;;;;;5016750;28;20243;-77
2023/11/18 01:02:13;;;;;;;2.72;1.38;;;5.60;92.20;;;;;;5016813;28;20228;-77
2023/11/18 01:04:45;;;;;;;2.85;1.30;;;5.70;92.30;;;;;;5017028;28;20213;-77
2023/11/18 01:07:12;;;;;;;3.80;1.88;;;5.70;92.30;;;;;;5016617;28;20231;-77
2023/11/18 01:09:53;;;;;;;3.60;1.50;;;5.80;92.30;;;;;;5016811;28;20290;-77
2023/11/18 01:12:20;;;;;;;2.75;1.70;;;5.80;92.30;;;;;;5017165;28;20199;-77
2023/11/18 01:14:50;;;;;;;3.10;1.83;;;5.90;92.30;;;;;;5016547;28;20200;-77
2023/11/18 01:17:18;;;;;;;2.65;1.35;;;5.90;92.20;;;;;;5016805;28;20220;-77
2023/11/18 01:19:46;;;;;;;2.63;1.48;;;5.90;92.00;;;;;;5016677;28;20251;-77
2023/11/18 01:22:13;;;;;;;2.47;1.20;;;6.00;92.00;;;;;;5016283;28;20200;-77
2023/11/18 01:24:43;;;;;;;2.63;1.38;;;6.00;91.90;;;;;;5016316;28;20282;-77
2023/11/18 01:27:10;;;;;;;2.50;1.30;;;6.10;91.70;;;;;;5016208;28;20199;-77
2023/11/18 01:29:40;;;;;;;2.10;1.10;;;6.10;91.70;;;;;;5016467;28;20615;-77
2023/11/18 01:32:09;;;;;;;2.50;1.20;;;6.10;91.50;;;;;;5016162;28;20239;-77
2023/11/18 01:34:39;;;;;;;2.78;1.10;;;6.10;91.40;;;;;;5016153;28;20224;-77
2023/11/18 01:37:07;;;;;;;1.90;1.00;;;6.20;91.40;;;;;;5016324;28;20199;-77
2023/11/18 01:39:36;;;;;;;3.97;1.45;;;6.20;91.30;;;;;;5016029;28;20258;-77
2023/11/18 01:42:06;;;;;;;2.30;1.20;;;6.20;91.20;;;;;;5016012;28;20254;-77
2023/11/18 01:44:35;;;;;;;2.08;0.95;;;6.30;91.20;;;;;;5015922;28;20652;-77
2023/11/18 01:47:05;;;;;;;2.25;1.08;;;6.30;91.20;;;;;;5016302;28;20200;-77
2023/11/18 01:49:33;;;;;;;2.42;1.20;;;6.30;91.20;;;;;;5016204;28;20184;-77
2023/11/18 01:52:01;;;;;;;2.00;0.88;;;6.30;91.20;;;;;;5016080;28;20616;-77
2023/11/18 01:54:32;;;;;;;2.38;1.33;;;6.40;91.20;;;;;;5016158;28;20206;-77
2023/11/18 01:57:00;;;;;;;2.10;1.23;;;6.40;91.10;;;;;;5015897;28;20613;-77
2023/11/18 01:59:33;;;;;;;2.03;0.90;;;6.40;91.00;;;;;;5015728;28;20627;-77
2023/11/18 02:02:03;;;;;;;2.47;1.10;;;6.40;90.70;;;;;;5016265;28;20659;-77
2023/11/18 02:04:34;;;;;;;2.00;0.90;;;6.40;90.70;;;;;;5015768;28;20184;-77
2023/11/18 02:07:06;;;;;;;2.33;1.30;;;6.40;90.50;;;;;;5015376;28;20199;-77
2023/11/18 02:09:35;;;;;;;2.03;1.10;;;6.40;90.50;;;;;;5015951;28;20611;-77
2023/11/18 02:12:10;;;;;;;2.40;1.15;;;6.40;90.70;;;;;;5015861;28;20274;-77
2023/11/18 02:14:41;;;;;;;1.90;1.00;;;6.40;90.70;;;;;;5016113;28;20223;-77
2023/11/18 02:17:11;;;;;;;3.13;1.50;;;6.50;90.50;;;;;;5015850;28;20605;-77
2023/11/18 02:19:41;;;;;;;2.30;1.20;;;6.50;89.80;;;;;;5015656;28;20200;-77
2023/11/18 02:22:11;;;;;;;2.70;1.38;;;6.50;89.60;;;;;;5015651;28;20188;-77
2023/11/18 02:24:41;;;;;;;2.00;1.05;;;6.50;89.50;;;;;;5015649;28;20200;-77
2023/11/18 02:27:11;;;;;;;2.10;1.02;;;6.50;89.60;;;;;;5015446;28;20227;-77
2023/11/18 02:29:42;;;;;;;2.40;1.10;;;6.40;89.40;;;;;;5015472;28;20184;-77
2023/11/18 02:32:16;;;;;;;2.20;1.10;;;6.40;89.20;;;;;;5015773;28;20200;-77
2023/11/18 02:34:51;;;;;;;2.55;1.30;;;6.40;88.80;;;;;;5014939;28;20241;-77
2023/11/18 02:37:19;;;;;;;2.65;1.40;;;6.40;88.80;;;;;;5015375;28;20215;-77
2023/11/18 02:39:51;;;;;;;2.55;1.30;;;6.40;89.10;;;;;;5014981;28;20234;-77
2023/11/18 02:42:22;;;;;;;2.50;1.50;;;6.40;89.40;;;;;;5015432;28;20536;-77
2023/11/18 02:45:06;;;;;;;2.58;1.40;;;6.40;89.50;;;;;;5015274;28;20184;-77
2023/11/18 02:47:35;;;;;;;2.10;1.25;;;6.40;90.00;;;;;;5014455;28;20551;-77
2023/11/18 02:50:10;;;;;;;2.67;1.42;;;6.40;90.00;;;;;;5014937;28;20311;-77
2023/11/18 02:52:38;;;;;;;2.88;1.70;;;6.40;90.00;;;;;;5014972;28;20180;-77
2023/11/18 02:55:07;;;;;;;2.60;1.52;;;6.40;89.70;;;;;;5015008;28;20188;-77
2023/11/18 02:57:38;;;;;;;2.53;1.63;;;6.40;89.70;;;;;;5014502;28;20726;-77
2023/11/18 03:00:12;;;;;;;2.92;1.60;;;6.50;89.90;;;;;;5014599;28;20704;-77
2023/11/18 03:02:39;;;;;;;2.35;1.50;;;6.50;89.80;;;;;;5014958;28;20212;-77
2023/11/18 03:05:26;;;;;;;2.45;1.40;;;6.50;89.60;;;;;;5014434;28;20714;-77
2023/11/18 03:07:57;;;;;;;3.00;1.58;;;6.50;89.90;;;;;;5014735;28;20242;-77
2023/11/18 03:10:25;;;;;;;2.63;1.40;;;6.50;89.90;;;;;;5014378;28;20208;-77
2023/11/18 03:12:56;;;;;;;2.90;1.45;;;6.50;89.90;;;;;;5014678;28;20243;-77
2023/11/18 03:15:25;;;;;;;2.33;1.30;;;6.50;90.30;;;;;;5014847;28;20231;-77
2023/11/18 03:17:55;;;;;;;4.85;1.95;;;6.50;89.90;;;;;;5014214;28;20669;-77
2023/11/18 03:20:25;;;;;;;2.63;1.73;;;6.50;89.90;;;;;;5014779;28;20196;-77
2023/11/18 03:22:53;;;;;;;5.15;1.90;;;6.50;90.00;;;;;;5014689;28;20188;-77
2023/11/18 03:25:21;;;;;;;2.95;1.60;;;6.50;90.00;;;;;;5014210;28;20234;-77
2023/11/18 03:27:50;;;;;;;2.83;1.67;;;6.50;90.10;;;;;;5014040;28;20195;-77
2023/11/18 03:30:19;;;;;;;2.55;1.42;;;6.50;90.20;;;;;;5014345;28;20251;-77
2023/11/18 03:32:46;;;;;;;2.90;1.63;;;6.50;90.00;;;;;;5014415;28;20631;-77
2023/11/18 03:35:13;;;;;;;2.90;1.70;;;6.50;90.00;;;;;;5014310;28;20193;-77
2023/11/18 03:37:41;;;;;;;3.05;1.98;;;6.50;89.80;;;;;;5014157;28;20255;-77
2023/11/18 03:40:10;;;;;;;2.40;1.42;;;6.50;90.00;;;;;;5014207;28;20196;-77
2023/11/18 03:42:37;;;;;;;2.97;1.85;;;6.50;90.10;;;;;;5014360;28;20224;-77
2023/11/18 03:45:05;;;;;;;2.42;1.58;;;6.60;90.00;;;;;;5014090;28;20188;-77
2023/11/18 03:47:35;;;;;;;2.92;2.00;;;6.60;90.00;;;;;;5013814;28;20196;-77
2023/11/18 03:50:02;;;;;;;3.35;2.15;;;6.60;90.00;;;;;;5014053;28;20192;-77
2023/11/18 03:52:31;;;;;;;2.63;1.75;;;6.60;89.80;;;;;;5013184;28;20196;-77
2023/11/18 03:54:58;;;;;;;5.40;1.95;;;6.60;89.70;;;;;;5014253;28;20633;-77
2023/11/18 03:57:27;;;;;;;5.45;2.30;;;6.60;89.60;;;;;;5013417;28;20286;-77
2023/11/18 03:59:54;;;;;;;4.53;2.47;;;6.60;89.00;;;;;;5014207;28;20200;-77
2023/11/18 04:02:26;;;;;;;3.30;1.95;;;6.60;89.20;;;;;;5013935;28;20659;-77
2023/11/18 04:04:55;;;;;;;3.05;1.63;;;6.60;89.30;;;;;;5013784;28;20199;-77
2023/11/18 04:07:28;;;;;;;2.60;1.60;;;6.60;89.60;;;;;;5013466;28;20228;-77
2023/11/18 04:09:55;;;;;;;3.88;1.98;;;6.60;89.80;;;;;;5013539;28;20268;-77
2023/11/18 04:12:24;;;;;;;3.15;1.75;;;6.60;90.00;;;;;;5013461;28;20224;-77
2023/11/18 04:14:52;;;;;;;2.85;1.42;;;6.60;90.10;;;;;;5013530;28;20663;-77
2023/11/18 04:17:20;;;;;;;2.65;1.73;;;6.60;90.10;;;;;;5013473;28;20647;-77
2023/11/18 04:19:47;;;;;;;3.10;2.10;;;6.60;90.20;;;;;;5014122;28;20254;-77
2023/11/18 04:22:15;;;;;;;3.42;2.00;;;6.60;90.40;;;;;;5013401;28;20231;-77
2023/11/18 04:24:45;;;;;;;4.10;2.38;;;6.60;90.60;;;;;;5013796;28;20223;-77
2023/11/18 04:27:14;;;;;;;3.30;2.40;;;6.60;90.70;;;;;;5013819;28;20307;-77
2023/11/18 04:29:42;;;;;;;3.45;2.47;;;6.60;90.80;;;;;;5013406;28;20644;-77
2023/11/18 04:32:08;;;;;;;3.50;2.30;;;6.60;91.00;;;;;;5014254;28;20212;-77
2023/11/18 04:34:37;;;;;;;3.42;2.10;;;6.60;91.20;;;;;;5013351;28;20278;-77
2023/11/18 04:37:04;;;;;;;3.38;2.35;;;6.60;91.30;;;;;;5013535;28;20275;-77
2023/11/18 04:39:34;;;;;;;3.65;2.67;;;6.60;91.40;;;;;;5013556;28;20188;-77
2023/11/18 04:42:02;;;;;;;3.40;2.45;;;6.60;91.50;;;;;;5013315;28;20717;-77
2023/11/18 04:44:31;;;;;;;3.05;2.15;;;6.60;91.60;;;;;;5012945;28;20262;-77
2023/11/18 04:47:01;;;;;;;2.88;1.80;;;6.60;91.40;;;;;;5013611;28;20614;-77
2023/11/18 04:49:28;;;;;;;3.15;2.10;;;6.60;91.00;;;;;;5013285;28;20187;-77
2023/11/18 04:52:01;;;;;;;4.32;2.60;;;6.60;90.90;;;;;;5013376;28;20294;-77
2023/11/18 04:54:28;;;;;;;3.22;1.95;;;6.50;90.90;;;;;;5012962;28;20253;-77
2023/11/18 04:56:57;;;;;;;3.25;2.20;;;6.50;90.60;;;;;;5013279;28;20224;-77
2023/11/18 04:59:24;;;;;;;3.15;2.58;;;6.50;90.90;;;;;;5013517;28;20216;-77
2023/11/18 05:01:53;;;;;;;5.15;2.05;;;6.50;91.00;;;;;;5013060;28;20211;-77
2023/11/18 05:04:20;;;;;;;2.85;2.00;;;6.50;91.10;;;;;;5013373;28;20219;-77
2023/11/18 05:06:48;;;;;;;2.95;1.90;;;6.50;91.10;;;;;;5013192;28;20200;-77
2023/11/18 05:09:18;;;;;;;3.97;1.80;;;6.50;90.90;;;;;;5013386;28;20598;-77
2023/11/18 05:11:47;;;;;;;2.90;2.00;;;6.50;90.80;;;;;;5017094;28;20220;-77
2023/11/18 05:14:16;;;;;;;3.85;2.83;;;6.50;90.90;;;;;;5017089;28;20188;-77
2023/11/18 05:16:43;;;;;;;5.53;2.90;;;6.50;90.90;;;;;;5016713;28;20203;-77
2023/11/18 05:19:21;;;;;;;4.78;3.30;;;6.50;90.90;;;;;;5016925;28;20207;-77
2023/11/18 05:21:50;;;;;;;6.40;3.90;;;6.50;90.60;;;;;;5016307;28;20188;-77
2023/11/18 05:24:34;;;;;;;4.75;3.05;;;6.50;90.30;;;;;;5016633;28;20234;-77
2023/11/18 05:27:02;;;;;;;2.80;1.77;;;6.50;90.00;;;;;;5016736;28;20219;-77
2023/11/18 05:29:31;;;;;;;3.33;1.85;;;6.40;90.20;;;;;;5016883;28;20196;-77
2023/11/18 05:31:59;;;;;;;3.38;2.17;;;6.40;90.30;;;;;;5016367;28;20251;-77
2023/11/18 05:34:26;;;;;;;3.05;1.70;;;6.30;90.30;;;;;;5015806;28;20275;-77
2023/11/18 05:36:54;;;;;;;2.60;1.50;;;6.40;90.60;;;;;;5016304;28;20242;-77
2023/11/18 05:39:24;;;;;;;2.95;1.65;;;6.40;90.50;;;;;;5016141;28;20681;-77
2023/11/18 05:41:55;;;;;;;2.47;1.52;;;6.30;90.20;;;;;;5016312;28;20203;-77
2023/11/18 05:44:30;;;;;;;2.30;1.30;;;6.30;90.40;;;;;;5016904;28;20196;-77
2023/11/18 05:46:59;;;;;;;2.85;2.00;;;6.30;90.50;;;;;;5016516;28;20638;-77
2023/11/18 05:49:26;;;;;;;3.42;1.30;;;6.40;90.00;;;;;;5016053;28;20647;-77
2023/11/18 05:51:53;;;;;;;2.80;1.55;;;6.30;90.10;;;;;;5016003;28;20219;-77
2023/11/18 05:54:20;;;;;;;2.60;1.40;;;6.30;90.40;;;;;;5016129;28;20259;-77
2023/11/18 05:56:51;;;;;;;2.50;1.30;;;6.30;90.40;;;;;;5015834;28;20284;-77
2023/11/18 05:59:18;;;;;;;2.50;1.40;;;6.30;90.40;;;;;;4977110;28;20208;-77
2023/11/18 06:01:45;;;;;;;3.28;1.45;;;6.30;90.30;;;;;;4977003;28;20284;-77
2023/11/18 06:04:13;;;;;;;3.28;1.85;;;6.30;90.30;;;;;;4976536;28;20668;-77
2023/11/18 06:06:41;;;;;;;3.80;2.13;;;6.30;90.40;;;;;;4976842;28;20252;-77
2023/11/18 06:09:09;;;;;;;3.97;2.67;;;6.30;90.30;;;;;;4976832;28;20664;-77
2023/11/18 06:11:35;;;;;;;3.42;2.30;;;6.30;90.30;;;;;;4976672;28;20213;-77
2023/11/18 06:14:03;;;;;;;3.50;2.03;;;6.20;90.20;;;;;;4976791;28;20526;-77
2023/11/18 06:16:30;;;;;;;3.40;2.30;;;6.20;90.30;;;;;;4976361;28;20200;-77
2023/11/18 06:18:58;;;;;;;3.97;2.28;;;6.10;90.70;;;;;;4976724;28;20232;-77
2023/11/18 06:21:29;;;;;;;4.13;2.22;;;6.10;90.80;;;;;;4975452;28;20208;-77
2023/11/18 06:24:00;;;;;;;3.15;2.30;;;6.10;90.80;;;;;;4976877;28;20194;-77
2023/11/18 06:26:28;;;;;;;5.40;3.25;;;6.20;90.90;;;;;;4976251;28;20201;-77
2023/11/18 06:28:59;;;;;;;5.28;3.63;;;6.20;90.90;;;;;;4976438;28;20194;-77
2023/11/18 06:31:29;;;;;;;5.68;3.22;;;6.10;90.80;;;;;;4976419;28;20264;-77
2023/11/18 06:34:09;;;;;;;5.82;3.30;;;6.10;91.00;;;;;;4975993;28;20236;-77
2023/11/18 06:36:38;;;;;;;4.50;2.63;;;6.10;91.10;;;;;;4976416;28;20193;-77
2023/11/18 06:39:07;;;;;;;4.13;2.53;;;6.10;91.20;;;;;;4976342;28;20229;-77
2023/11/18 06:41:36;;;;;;;3.10;1.80;;;6.10;91.50;;;;;;4975685;28;20197;-77
2023/11/18 06:44:09;;;;;;;4.75;1.83;;;6.10;91.50;;;;;;4976085;28;20193;-77
2023/11/18 06:46:39;;;;;;;2.83;1.45;;;6.20;91.50;;;;;;4975682;28;20233;-77
2023/11/18 06:49:07;;;;;;;3.85;2.00;;;6.20;91.40;;;;;;4975933;28;20218;-77
2023/11/18 06:51:37;;;;;;;5.97;1.95;;;6.20;91.30;;;;;;4975672;28;20227;-77
2023/11/18 06:54:08;;;;;;;3.22;1.67;;;6.20;91.10;;;;;;4975787;28;20273;-77
2023/11/18 06:56:37;;;;;;;2.90;1.70;;;6.30;91.10;;;;;;4975403;28;20229;-77
2023/11/18 06:59:05;;;;;;;2.60;1.80;;;6.30;90.70;;;;;;5012572;28;20298;-77
2023/11/18 07:01:33;;;;;;;3.55;1.90;;;6.30;90.90;;;;;;5014300;28;20238;-77
2023/11/18 07:04:00;;;;;;;4.15;1.70;;;6.30;90.50;;;;;;5014762;28;20282;-77
2023/11/18 07:06:27;;;;;;;5.63;1.80;;;6.40;90.50;;;;;;5014270;28;20279;-77
2023/11/18 07:08:56;;;;;;;3.22;1.90;;;6.40;90.50;;;;;;5014276;28;20176;-78
2023/11/18 07:11:24;;;;;;;2.95;1.70;;;6.40;90.20;;;;;;5014074;28;20222;-77
2023/11/18 07:13:56;;;;;;;2.38;1.30;;;6.50;90.50;;;;;;5014414;28;20219;-77
2023/11/18 07:16:23;;;;;;;2.75;1.58;;;6.50;90.30;;;;;;5014502;28;20271;-77
2023/11/18 07:18:50;;;;;;;3.22;1.83;;;6.50;90.10;;;;;;5014336;28;20232;-77
2023/11/18 07:21:17;;;;;;;3.08;1.60;;;6.50;89.50;;;;;;5013398;28;20218;-77
2023/11/18 07:23:44;;;;;;;5.63;1.80;;;6.60;88.80;;;;;;5013181;28;20219;-77
2023/11/18 07:26:11;;;;;;;2.85;1.80;;;6.60;89.00;;;;;;5013589;28;20203;-77
2023/11/18 07:28:39;;;;;;;2.58;1.40;;;6.60;89.00;;;;;;5013791;28;20192;-77
2023/11/18 07:31:07;;;;;;;4.38;2.92;;;6.60;89.20;;;;;;5013175;28;20188;-76
2023/11/18 07:33:34;;;;;;;3.22;2.05;;;6.60;88.80;;;;;;5013642;28;20301;-77
2023/11/18 07:36:02;;;;;;;6.65;5.05;;;6.60;88.60;;;;;;5013498;28;20232;-77
2023/11/18 07:38:33;;;;;;;4.20;3.60;;;6.60;88.70;;;;;;5013191;28;20278;-77
2023/11/18 07:41:02;;;;;;;2.40;1.10;;;6.70;89.30;;;;;;5030170;28;20206;-77
2023/11/18 07:43:31;;;;;;;38.00;27.50;;;6.80;88.10;;;;;;5031043;28;20198;-77
2023/11/18 07:46:00;;;;;;;5.47;4.25;;;6.90;87.20;;;;;;5014918;28;20224;-77
2023/11/18 07:48:28;;;;;;;6.47;4.65;;;7.20;86.60;;;;;;5013110;28;20210;-77
2023/11/18 07:50:55;;;;;;;11.35;9.80;;;7.40;85.70;;;;;;5013243;28;20195;-78
2023/11/18 07:53:22;;;;;;;4.40;3.33;;;7.80;85.00;;;;;;5012995;28;20306;-78
2023/11/18 07:55:49;;;;;;;3.03;2.10;;;8.30;82.90;;;;;;5013242;28;20196;-78
2023/11/18 07:58:18;;;;;;;2.35;1.55;;;8.80;82.20;;;;;;5030449;28;20250;-78
2023/11/18 08:00:46;;;;;;;2.92;1.90;;;9.10;78.60;;;;;;5030503;28;20195;-78
2023/11/18 08:03:14;;;;;;;4.05;2.85;;;9.50;78.50;;;;;;5030532;28;20282;-77
2023/11/18 08:05:43;;;;;;;2.95;1.90;;;9.90;77.80;;;;;;5029961;28;20235;-78
2023/11/18 08:08:10;;;;;;;3.35;1.70;;;10.40;74.50;;;;;;5012867;28;20659;-78
2023/11/18 08:10:38;;;;;;;2.95;1.70;;;11.00;70.60;;;;;;5012909;28;20235;-78
2023/11/18 08:13:06;;;;;;;2.60;1.60;;;11.40;68.80;;;;;;5013257;28;20220;-79
2023/11/18 08:15:34;;;;;;;2.20;1.20;;;11.50;64.00;;;;;;5013327;28;20614;-78
2023/11/18 08:18:03;;;;;;;2.57;1.50;;;11.50;64.10;;;;;;5013158;28;20439;-78
2023/11/18 08:20:32;;;;;;;3.10;1.20;;;11.60;62.60;;;;;;5012784;28;20470;-78
2023/11/18 08:22:59;;;;;;;4.25;1.65;;;11.80;62.70;;;;;;5012629;28;20475;-78
2023/11/18 08:25:26;;;;;;;4.17;1.80;;;12.10;63.20;;;;;;5012642;28;20284;-78
2023/11/18 08:27:53;;;;;;;3.60;2.13;;;12.50;60.70;;;;;;5012790;28;20967;-78
2023/11/18 08:30:20;;;;;;;3.00;1.20;;;12.90;59.60;;;;;;5012645;28;20443;-78
2023/11/18 08:32:48;;;;;;;4.77;1.63;;;13.30;58.70;;;;;;5012725;28;20487;-77
2023/11/18 08:35:15;;;;;;;4.00;1.87;;;13.50;57.20;;;;;;5012997;28;20493;-77
2023/11/18 08:37:45;;;;;;;3.57;1.83;;;13.70;54.20;;;;;;5012456;28;20979;-76
2023/11/18 08:40:15;;;;;;;3.57;2.13;;;13.70;54.00;;;;;;5012404;28;20478;-76
2023/11/18 08:42:47;;;;;;;3.37;1.43;;;13.90;54.50;;;;;;5012702;28;20423;-77
2023/11/18 08:45:16;;;;;;;2.97;1.40;;;14.00;53.70;;;;;;5014130;28;20434;-77
2023/11/18 08:47:45;;;;;;;2.30;1.03;;;14.20;54.00;;;;;;5016319;28;20431;-76
2023/11/18 08:50:13;;;;;;;2.80;1.00;;;14.40;52.30;;;;;;5018166;28;20447;-77
2023/11/18 08:52:43;;;;;;;2.00;0.90;;;14.60;52.50;;;;;;5032929;28;20520;-77
2023/11/18 08:55:18;;;;;;;2.37;1.30;;;14.90;50.80;;;;;;5033167;28;20917;-76
2023/11/18 08:57:57;;;;;;;2.93;1.53;;;15.10;48.10;;;;;;5016124;28;20496;-78
2023/11/18 09:03:24;;;;;;;2.30;1.17;;;15.30;49.70;;;;;;4998494;28;20465;-78
2023/11/18 09:05:58;;;;;;;2.00;0.90;;;15.50;48.40;;;;;;5018155;28;20444;-78
2023/11/18 09:08:32;;;;;;;2.73;1.40;;;15.60;48.20;;;;;;5016247;28;20465;-78
2023/11/18 09:11:00;;;;;;;2.30;0.80;;;15.80;48.50;;;;;;5024179;28;20454;-78
2023/11/18 09:13:29;;;;;;;3.57;1.20;;;16.00;46.70;;;;;;5023443;28;20481;-78
2023/11/18 09:16:03;;;;;;;2.00;0.97;;;16.00;44.50;;;;;;5023640;28;20876;-78
2023/11/18 09:18:33;;;;;;;3.03;1.43;;;16.30;46.80;;;;;;5022501;28;20439;-79
2023/11/18 09:21:03;;;;;;;2.70;1.57;;;16.50;46.00;;;;;;5024468;28;20513;-78
2023/11/18 09:23:35;;;;;;;2.40;1.10;;;16.60;44.80;;;;;;5028778;28;20525;-78
2023/11/18 09:26:10;;;;;;;2.70;0.83;;;16.60;42.90;;;;;;5033293;28;20426;-77
2023/11/18 09:28:40;;;;;;;2.00;1.00;;;16.70;42.80;;;;;;5032148;28;20517;-78
2023/11/18 09:31:11;;;;;;;2.30;0.87;;;16.60;43.80;;;;;;5033460;28;20466;-78
2023/11/18 09:33:44;;;;;;;2.97;0.80;;;16.60;43.40;;;;;;5031981;28;20536;-78
2023/11/18 09:36:13;;;;;;;2.40;1.20;;;16.70;42.90;;;;;;5033079;28;20438;-78
2023/11/18 09:38:46;;;;;;;4.30;1.20;;;16.90;43.30;;;;;;5033271;28;20517;-78
2023/11/18 09:41:15;;;;;;;3.37;1.23;;;17.10;42.30;;;;;;5033226;28;20442;-78
2023/11/18 09:43:45;;;;;;;2.50;0.90;;;17.00;40.50;;;;;;5008560;28;20947;-78
2023/11/18 09:46:13;;;;;;;2.00;0.73;;;16.90;40.90;;;;;;5012050;28;20492;-77
2023/11/18 09:48:59;;;;;;;3.03;1.17;;;16.80;39.80;;;;;;5015790;28;20671;-78
2023/11/18 09:51:35;;;;;;;2.03;0.80;;;16.70;41.40;;;;;;5018339;28;20432;-78
2023/11/18 09:54:10;;;;;;;2.20;0.87;;;16.80;41.40;;;;;;5014629;28;21051;-78
2023/11/18 09:56:45;;;;;;;2.27;0.90;;;16.90;41.40;;;;;;5014834;28;20435;-78
2023/11/18 09:59:23;;;;;;;2.20;0.80;;;16.90;40.20;;;;;;5014751;28;20434;-77
2023/11/18 10:01:54;;;;;;;2.50;1.17;;;16.90;41.30;;;;;;5014480;28;20519;-78
2023/11/18 10:04:22;;;;;;;2.37;1.30;;;16.90;40.70;;;;;;5023627;28;20480;-78
2023/11/18 10:06:53;;;;;;;6.10;1.37;;;16.70;39.10;;;;;;5032220;28;20439;-78
2023/11/18 10:09:28;;;;;;;2.13;1.00;;;16.70;39.00;;;;;;5032059;28;20427;-78
2023/11/18 10:12:05;;;;;;;2.50;1.00;;;16.80;39.50;;;;;;5031579;28;20971;-78
2023/11/18 10:14:34;;;;;;;2.00;0.90;;;16.70;38.90;;;;;;5032018;28;20518;-78
2023/11/18 10:17:10;;;;;;;2.20;0.90;;;16.60;37.50;;;;;;5032507;28;20444;-78
2023/11/18 10:19:59;;;;;;;3.30;1.47;;;16.50;38.70;;;;;;5014503;28;20482;-78
2023/11/18 10:22:29;;;;;;;2.10;0.83;;;16.70;38.60;;;;;;5000292;28;20509;-78
2023/11/18 10:25:06;;;;;;;2.30;1.10;;;16.80;36.60;;;;;;5014690;28;20431;-78
2023/11/18 10:27:35;;;;;;;2.00;0.80;;;16.60;37.40;;;;;;5014302;28;20430;-78
2023/11/18 10:30:04;;;;;;;1.80;0.80;;;16.80;37.20;;;;;;5013010;28;21002;-76
2023/11/18 10:32:35;;;;;;;2.23;1.07;;;16.90;38.20;;;;;;5014602;28;20597;-77
2023/11/18 10:35:05;;;;;;;2.93;0.90;;;17.10;38.80;;;;;;5014591;28;20514;-71
2023/11/18 10:37:41;;;;;;;2.63;1.20;;;17.60;39.40;;;;;;5014390;28;20474;-71
2023/11/18 10:40:14;;;;;;;2.03;0.77;;;18.10;37.50;;;;;;5031099;28;20710;-72
2023/11/18 10:42:48;;;;;;;1.97;0.70;;;18.50;37.20;;;;;;5031681;28;20438;-71
2023/11/18 10:45:31;;;;;;;1.90;0.70;;;18.90;36.30;;;;;;5030858;28;20430;-72
2023/11/18 10:48:05;;;;;;;2.73;1.27;;;19.50;37.00;;;;;;5014027;28;20914;-71
2023/11/18 10:50:39;;;;;;;5.60;1.53;;;19.80;32.80;;;;;;5031361;28;20438;-72
2023/11/18 10:53:11;;;;;;;2.70;1.30;;;19.80;32.90;;;;;;5031614;28;20470;-72
2023/11/18 10:55:40;;;;;;;3.37;1.43;;;20.10;33.90;;;;;;5014074;28;20431;-71
2023/11/18 10:58:14;;;;;;;2.50;1.30;;;20.60;33.20;;;;;;5013802;28;20467;-71
2023/11/18 11:00:51;;;;;;;3.70;0.90;;;21.00;33.40;;;;;;5014158;28;20437;-71
2023/11/18 11:03:23;;;;;;;2.43;0.80;;;21.30;33.30;;;;;;5027729;28;20975;-71
2023/11/18 11:05:51;;;;;;;2.10;0.87;;;21.70;30.80;;;;;;5031907;28;20826;-71
2023/11/18 11:08:20;;;;;;;2.30;0.77;;;21.90;30.80;;;;;;5029756;28;20526;-72
2023/11/18 11:10:54;;;;;;;1.93;0.70;;;22.20;31.10;;;;;;5011957;28;20483;-71
2023/11/18 11:13:23;;;;;;;2.03;0.73;;;21.90;29.30;;;;;;5013858;28;20477;-72
2023/11/18 11:15:53;;;;;;;2.93;0.67;;;21.80;30.00;;;;;;5012758;28;20834;-72
2023/11/18 11:18:27;;;;;;;2.00;0.80;;;22.00;29.50;;;;;;5011361;28;20484;-72
2023/11/18 11:21:15;;;;;;;2.30;0.90;;;22.20;29.90;;;;;;5029262;28;20426;-72
2023/11/18 11:23:55;;;;;;;2.07;1.00;;;22.40;28.40;;;;;;5013129;28;20768;-72
2023/11/18 11:26:39;;;;;;;3.93;0.90;;;22.50;28.40;;;;;;5011717;28;20433;-71
2023/11/18 11:29:22;;;;;;;3.23;1.13;;;22.50;26.80;;;;;;5013353;28;20446;-71
2023/11/18 11:32:01;;;;;;;5.70;0.57;;;22.40;26.50;;;;;;5013568;28;20431;-71
2023/11/18 11:34:31;;;;;;;2.10;0.77;;;22.40;25.90;;;;;;5013134;28;21060;-72
2023/11/18 11:37:01;;;;;;;3.60;1.37;;;22.30;27.10;;;;;;5013576;28;20510;-72
2023/11/18 11:39:30;;;;;;;2.87;1.50;;;22.10;26.80;;;;;;5013406;28;20427;-71
2023/11/18 11:42:09;;;;;;;2.83;0.90;;;21.90;27.10;;;;;;5013200;28;20470;-72
2023/11/18 11:44:42;;;;;;;2.10;0.70;;;21.60;27.50;;;;;;5026889;28;20426;-72
2023/11/18 11:47:15;;;;;;;2.50;1.10;;;21.30;28.10;;;;;;5013013;28;20511;-71
2023/11/18 11:49:48;;;;;;;2.90;0.93;;;20.90;28.90;;;;;;5012270;28;20771;-72
2023/11/18 11:52:20;;;;;;;8.77;1.83;;;20.50;28.10;;;;;;5012799;28;20431;-73
2023/11/18 11:54:57;;;;;;;2.90;1.40;;;20.20;28.30;;;;;;5013353;28;20775;-71
2023/11/18 11:57:27;;;;;;;2.07;0.90;;;19.80;28.60;;;;;;5012962;28;20474;-72
2023/11/18 12:00:01;;;;;;;3.20;0.80;;;19.40;29.10;;;;;;5016430;28;20424;-71
2023/11/18 12:02:40;;;;;;;2.30;1.20;;;19.00;28.20;;;;;;5014410;28;20454;-71
2023/11/18 12:05:08;;;;;;;4.13;1.30;;;18.50;29.70;;;;;;5014986;28;20804;-72
2023/11/18 12:07:38;;;;;;;2.40;0.97;;;18.20;30.30;;;;;;5016976;28;20436;-72
2023/11/18 12:10:13;;;;;;;2.10;1.07;;;17.90;31.70;;;;;;5012176;28;20427;-72
2023/11/18 12:12:42;;;;;;;4.20;0.63;;;17.80;32.10;;;;;;5012427;28;20427;-73
2023/11/18 12:15:12;;;;;;;1.90;0.60;;;17.50;31.50;;;;;;5012510;28;20439;-72
2023/11/18 12:18:14;;;;;;;3.57;1.00;;;17.30;32.30;;;;;;5012746;28;20926;-71
2023/11/18 12:20:45;;;;;;;2.60;1.10;;;17.10;32.50;;;;;;5014895;28;20521;-72
2023/11/18 12:23:15;;;;;;;3.30;1.00;;;16.90;32.90;;;;;;5016738;28;20476;-71
2023/11/18 12:25:49;;;;;;;3.40;0.77;;;16.70;33.30;;;;;;5016991;28;20450;-75
2023/11/18 12:28:21;;;;;;;2.53;1.07;;;16.40;31.80;;;;;;5016359;28;20427;-72
2023/11/18 12:30:55;;;;;;;3.10;0.70;;;16.10;31.70;;;;;;5016899;28;20436;-72
2023/11/18 12:33:24;;;;;;;2.53;0.80;;;15.80;33.10;;;;;;5016314;28;20532;-71
2023/11/18 12:36:38;;;;;;;2.20;0.90;;;15.50;33.40;;;;;;5013497;28;20451;-75
2023/11/18 12:39:44;;;;;;;3.80;1.20;;;15.30;33.20;;;;;;5032214;28;20453;-71
2023/11/18 12:42:20;;;;;;;1.80;0.67;;;15.00;34.80;;;;;;5016158;28;20426;-71
2023/11/18 12:45:26;;;;;;;2.30;0.83;;;14.80;34.90;;;;;;5027764;28;20461;-72
2023/11/18 12:48:11;;;;;;;2.47;1.10;;;14.80;34.60;;;;;;5033703;28;20430;-72
2023/11/18 12:50:43;;;;;;;2.00;1.00;;;14.60;34.10;;;;;;5033717;28;20438;-72
2023/11/18 12:53:14;;;;;;;2.30;0.90;;;14.40;34.40;;;;;;5015797;28;20985;-71
2023/11/18 12:55:42;;;;;;;2.63;0.90;;;14.30;34.90;;;;;;5016460;28;20427;-71
2023/11/18 12:58:11;;;;;;;3.20;1.23;;;14.30;36.10;;;;;;5015890;28;20503;-72
2023/11/18 13:00:42;;;;;;;2.30;0.70;;;14.30;35.70;;;;;;5016306;28;20540;-71
2023/11/18 13:03:15;;;;;;;2.77;0.97;;;14.30;35.60;;;;;;5016027;28;20443;-72
2023/11/18 13:05:43;;;;;;;2.70;1.07;;;14.30;35.10;;;;;;5016160;28;20786;-71
2023/11/18 13:08:10;;;;;;;2.63;1.00;;;14.10;36.10;;;;;;5015788;28;20450;-72
2023/11/18 13:10:40;;;;;;;2.17;0.90;;;14.00;35.90;;;;;;5016032;28;20522;-73
2023/11/18 13:13:08;;;;;;;3.10;1.57;;;13.80;37.10;;;;;;5015446;28;20420;-72